createdAt,value
2022-08-05T00:00:46.403Z,99307.97
2022-08-05T00:06:04.886Z,99305.47
2022-08-05T00:11:24.005Z,99299.97
2022-08-05T00:16:35.368Z,99298.53
2022-08-05T00:21:38.448Z,99292.41
2022-08-05T00:26:50.898Z,99295.81
2022-08-05T00:32:13.435Z,99297.13
2022-08-05T00:37:16.287Z,99290.97
2022-08-05T00:42:37.219Z,99290.78
2022-08-05T00:47:56.886Z,99298.16
2022-08-05T00:52:59.540Z,99294.88
2022-08-05T00:58:01.294Z,99284.22
2022-08-05T01:03:03.217Z,99284.44
2022-08-05T01:08:31.590Z,99288.63
2022-08-05T01:13:59.026Z,99281.69
2022-08-05T01:19:14.298Z,99277.03
2022-08-05T01:24:33.311Z,99275.53
2022-08-05T01:29:40.554Z,99279.91
2022-08-05T01:34:48.800Z,99273.28
2022-08-05T01:39:52.309Z,99281.59
2022-08-05T01:45:02.405Z,99273.59
2022-08-05T01:50:08.336Z,99280.25
2022-08-05T01:55:20.800Z,99284.22
2022-08-05T02:00:30.721Z,99270.25
2022-08-05T02:05:36.734Z,99261.41
2022-08-05T02:10:44.046Z,99262.91
2022-08-05T02:15:54.021Z,99252.78
2022-08-05T02:21:05.673Z,99247.09
2022-08-05T02:26:10.139Z,99242.69
2022-08-05T02:31:21.865Z,99237.41
2022-08-05T02:36:24.772Z,99230.63
2022-08-05T02:41:36.370Z,99231.91
2022-08-05T02:47:00.208Z,99239.91
2022-08-05T02:52:04.723Z,99229.75
2022-08-05T02:58:10.936Z,99213.47
2022-08-05T03:02:40.822Z,99218.94
2022-08-05T03:08:01.698Z,99212.72
2022-08-05T03:13:16.580Z,99220.78
2022-08-05T03:18:18.617Z,99220.25
2022-08-05T03:23:26.918Z,99217.78
2022-08-05T03:28:31.679Z,99221.50
2022-08-05T03:33:51.301Z,99228.34
2022-08-05T03:38:54.944Z,99245.16
2022-08-05T03:44:08.633Z,99246.94
2022-08-05T03:49:13.110Z,99240.28
2022-08-05T03:56:03.862Z,99245.72
2022-08-05T04:00:09.239Z,99254.03
2022-08-05T04:05:17.925Z,99268.09
2022-08-05T04:10:20.656Z,99262.63
2022-08-05T04:15:24.418Z,99270.44
2022-08-05T04:20:26.293Z,99267.66
2022-08-05T04:25:56.518Z,99275.44
2022-08-05T04:30:49.731Z,99273.00
2022-08-05T04:36:15.558Z,99274.91
2022-08-05T04:41:13.195Z,99274.72
2022-08-05T04:46:28.491Z,99276.50
2022-08-05T04:51:30.740Z,99283.28
2022-08-05T04:56:36.762Z,99293.09
2022-08-05T05:02:08.196Z,99285.75
2022-08-05T05:07:00.357Z,99288.72
2022-08-05T05:12:04.439Z,99288.75
2022-08-05T05:17:09.386Z,99284.94
2022-08-05T05:22:23.406Z,99284.44
2022-08-05T05:27:45.198Z,99296.34
2022-08-05T05:32:50.347Z,99293.75
2022-08-05T05:37:59.661Z,99283.88
2022-08-05T05:43:02.403Z,99286.59
2022-08-05T05:48:08.060Z,99287.72
2022-08-05T05:53:21.164Z,99280.09
2022-08-05T05:58:31.491Z,99273.31
2022-08-05T06:03:53.610Z,99293.91
2022-08-05T06:08:55.828Z,99302.13
2022-08-05T06:13:57.582Z,99334.25
2022-08-05T06:19:05.960Z,99363.72
2022-08-05T06:24:11.535Z,99343.41
2022-08-05T06:29:25.083Z,99379.00
2022-08-05T06:34:35.940Z,99370.28
2022-08-05T06:39:39.578Z,99366.66
2022-08-05T06:44:43.423Z,99363.31
2022-08-05T06:50:00.619Z,99380.25
2022-08-05T06:55:04.547Z,99393.44
2022-08-05T07:00:06.960Z,99378.72
2022-08-05T07:05:15.366Z,99381.63
2022-08-05T07:10:20.942Z,99388.72
2022-08-05T07:16:01.965Z,99397.91
2022-08-05T07:21:04.639Z,99399.72
2022-08-05T07:26:07.306Z,99412.38
2022-08-05T07:31:08.964Z,99413.97
2022-08-05T07:36:21.507Z,99420.31
2022-08-05T07:42:13.712Z,99424.16
2022-08-05T07:46:49.376Z,99440.00
2022-08-05T07:51:54.344Z,99442.19
2022-08-05T07:57:02.072Z,99433.63
2022-08-05T08:02:26.848Z,99447.69
2022-08-05T08:07:39.737Z,99449.06
2022-08-05T08:12:55.108Z,99487.16
2022-08-05T08:18:01.960Z,99476.50
2022-08-05T08:23:04.684Z,99481.19
2022-08-05T08:28:06.357Z,99481.47
2022-08-05T08:33:19.899Z,99478.84
2022-08-05T08:38:35.987Z,99485.94
2022-08-05T08:45:17.127Z,99475.00
2022-08-05T08:50:22.533Z,99481.06
2022-08-05T08:54:27.685Z,99487.88
2022-08-05T08:59:33.665Z,99481.78
2022-08-05T09:04:58.621Z,99478.75
2022-08-05T09:09:59.450Z,99477.75
2022-08-05T09:15:06.517Z,99462.97
2022-08-05T09:20:09.375Z,99465.03
2022-08-05T09:25:13.466Z,99484.16
2022-08-05T09:30:17.119Z,99479.53
2022-08-05T09:35:27.371Z,99482.03
2022-08-05T09:40:33.647Z,99469.25
2022-08-05T09:46:06.960Z,99463.25
2022-08-05T09:51:15.231Z,99457.72
2022-08-05T09:56:29.845Z,99475.72
2022-08-05T10:01:36.901Z,99467.88
2022-08-05T10:06:59.232Z,99454.97
2022-08-05T10:12:30.833Z,99453.91
2022-08-05T10:17:37.613Z,99447.94
2022-08-05T10:22:50.743Z,99456.22
2022-08-05T10:28:13.104Z,99448.66
2022-08-05T10:33:15.713Z,99452.53
2022-08-05T10:38:21.128Z,99443.75
2022-08-05T10:43:45.839Z,99436.47
2022-08-05T10:49:01.462Z,99432.97
2022-08-05T10:54:28.459Z,99436.28
2022-08-05T11:00:03.740Z,99435.69
2022-08-05T11:04:55.298Z,99428.06
2022-08-05T11:10:04.142Z,99436.91
2022-08-05T11:16:00.755Z,99438.34
2022-08-05T11:20:51.040Z,99442.97
2022-08-05T11:26:12.033Z,99440.44
2022-08-05T11:31:19.525Z,99444.88
2022-08-05T11:36:52.891Z,99431.22
2022-08-05T11:42:02.430Z,99426.06
2022-08-05T11:47:11.170Z,99448.72
2022-08-05T11:52:29.204Z,99440.50
2022-08-05T11:58:08.557Z,99426.78
2022-08-05T12:02:53.772Z,99414.66
2022-08-05T12:08:08.073Z,99424.88
2022-08-05T12:13:16.890Z,99416.31
2022-08-05T12:18:34.657Z,99399.78
2022-08-05T12:23:51.217Z,99391.66
2022-08-05T12:28:52.873Z,99389.50
2022-08-05T12:33:58.273Z,99399.75
2022-08-05T12:39:00.691Z,99390.78
2022-08-05T12:44:05.872Z,99398.66
2022-08-05T12:49:14.953Z,99399.53
2022-08-05T12:54:32.326Z,99377.25
2022-08-05T13:00:08.703Z,99376.16
2022-08-05T13:05:08.403Z,99367.47
2022-08-05T13:10:19.531Z,99372.16
2022-08-05T13:15:24.478Z,99369.59
2022-08-05T13:20:40.366Z,99374.09
2022-08-05T13:25:51.754Z,99365.03
2022-08-05T13:31:10.993Z,99380.03
2022-08-05T13:36:16.492Z,99374.59
2022-08-05T13:41:18.197Z,99373.56
2022-08-05T13:46:30.758Z,99374.03
2022-08-05T13:51:46.286Z,99361.09
2022-08-05T13:56:50.833Z,99362.81
2022-08-05T14:02:00.092Z,99354.44
2022-08-05T14:07:26.514Z,99361.00
2022-08-05T14:12:32.274Z,99353.38
2022-08-05T14:17:35.307Z,99359.09
2022-08-05T14:22:37.262Z,99345.94
2022-08-05T14:27:40.270Z,99345.63
2022-08-05T14:32:49.165Z,99337.38
2022-08-05T14:37:55.438Z,99334.50
2022-08-05T14:42:57.359Z,99334.84
2022-08-05T14:48:02.890Z,99331.50
2022-08-05T14:53:06.359Z,99326.38
2022-08-05T14:58:10.888Z,99334.56
2022-08-05T15:03:13.963Z,99321.78
2022-08-05T15:08:17.892Z,99325.84
2022-08-05T15:13:46.481Z,99324.13
2022-08-05T15:18:52.075Z,99332.81
2022-08-05T15:23:54.431Z,99333.31
2022-08-05T15:28:56.074Z,99340.25
2022-08-05T15:34:18.634Z,99342.69
2022-08-05T15:40:59.226Z,99339.47
2022-08-05T15:44:41.795Z,99339.91
2022-08-05T15:49:56.560Z,99343.28
2022-08-05T15:55:00.675Z,99335.56
2022-08-05T16:00:08.066Z,99335.66
2022-08-05T16:05:09.847Z,99344.56
2022-08-05T16:10:13.033Z,99362.22
2022-08-05T16:15:18.656Z,99360.78
2022-08-05T16:20:20.554Z,99371.25
2022-08-05T16:25:22.238Z,99367.63
2022-08-05T16:30:36.313Z,99366.47
2022-08-05T16:35:42.296Z,99393.38
2022-08-05T16:40:51.721Z,99388.75
2022-08-05T16:46:04.466Z,99398.13
2022-08-05T16:51:10.776Z,99408.88
2022-08-05T16:56:12.715Z,99417.88
2022-08-05T17:01:14.498Z,99425.69
2022-08-05T17:06:16.601Z,99434.19
2022-08-05T17:11:18.590Z,99452.22
2022-08-05T17:16:37.090Z,99460.25
2022-08-05T17:21:39.566Z,99466.44
2022-08-05T17:26:41.772Z,99477.16
2022-08-05T17:31:57.335Z,99486.13
2022-08-05T17:37:00.778Z,99494.28
2022-08-05T17:42:28.612Z,99530.53
2022-08-05T17:47:24.476Z,99552.09
2022-08-05T17:52:26.443Z,99566.19
2022-08-05T17:57:28.537Z,99587.50
2022-08-05T18:02:30.255Z,99610.00
2022-08-05T18:07:41.313Z,99632.84
2022-08-05T18:12:44.015Z,99647.88
2022-08-05T18:17:59.160Z,99672.00
2022-08-05T18:23:09.001Z,99691.00
2022-08-05T18:28:16.381Z,99696.50
2022-08-05T18:33:22.665Z,99717.63
2022-08-05T18:38:26.051Z,99720.28
2022-08-05T18:43:27.967Z,99736.44
2022-08-05T18:48:33.740Z,99758.56
2022-08-05T18:53:43.181Z,99767.50
2022-08-05T18:58:54.954Z,99793.50
2022-08-05T19:04:03.085Z,99797.31
2022-08-05T19:09:07.279Z,99787.81
2022-08-05T19:14:44.807Z,99797.25
2022-08-05T19:19:30.703Z,99801.13
2022-08-05T19:24:34.609Z,99817.63
2022-08-05T19:29:37.432Z,99827.81
2022-08-05T19:34:40.715Z,99850.78
2022-08-05T19:39:45.820Z,99874.59
2022-08-05T19:44:53.621Z,99883.69
2022-08-05T19:50:00.903Z,99898.69
2022-08-05T19:55:07.019Z,99902.81
2022-08-05T20:00:24.972Z,99896.63
2022-08-05T20:05:27.458Z,99903.78
2022-08-05T20:10:45.105Z,99911.47
2022-08-05T20:15:56.831Z,99916.97
2022-08-05T20:21:00.052Z,99940.38
2022-08-05T20:26:03.621Z,99939.00
2022-08-05T20:31:07.385Z,99941.81
2022-08-05T20:36:10.060Z,99966.09
2022-08-05T20:41:23.725Z,99961.81
2022-08-05T20:46:28.329Z,99959.13
2022-08-05T20:51:29.983Z,99976.22
2022-08-05T20:56:42.323Z,99990.41
2022-08-05T21:01:45.010Z,100002.31
2022-08-05T21:06:46.805Z,99996.72
2022-08-05T21:12:06.884Z,100016.66
2022-08-05T21:17:10.554Z,100029.53
2022-08-05T21:22:12.213Z,100036.81
2022-08-05T21:27:16.636Z,100057.50
2022-08-05T21:32:20.109Z,100072.28
2022-08-05T21:37:22.051Z,100073.13
2022-08-05T21:42:41.099Z,100103.03
2022-08-05T21:47:56.572Z,100119.00
2022-08-05T21:53:04.728Z,100132.38
2022-08-05T21:58:19.526Z,100114.22
2022-08-05T22:03:48.494Z,100085.38
2022-08-05T22:08:42.982Z,100134.13
2022-08-05T22:14:06.627Z,100108.03
2022-08-05T22:19:56.374Z,100116.22
2022-08-05T22:24:52.470Z,100142.56
2022-08-05T22:29:55.166Z,100175.50
2022-08-05T22:34:56.851Z,100210.69
2022-08-05T22:39:58.661Z,100255.03
2022-08-05T22:45:00.570Z,100209.00
2022-08-05T22:50:20.522Z,100210.81
2022-08-05T22:55:24.691Z,100205.59
2022-08-05T23:00:28.291Z,100191.72
2022-08-05T23:05:35.894Z,100197.28
2022-08-05T23:10:38.190Z,100191.81
2022-08-05T23:15:40.633Z,100190.22
2022-08-05T23:20:43.189Z,100173.69
2022-08-05T23:25:53.571Z,100172.59
2022-08-05T23:31:02.293Z,100155.66
2022-08-05T23:36:17.664Z,100202.19
2022-08-05T23:41:19.553Z,100197.78
2022-08-05T23:46:22.206Z,100212.41
2022-08-05T23:51:23.975Z,100211.59
2022-08-05T23:56:27.391Z,100227.31
